Time;durP1;ratioP1;P1;durP2;ratioP2;P2;SDS_P1;SDS_P2;PMS_P1;PMS_P2;Temp;Humidity;BMP_temperature;BMP_pressure;BME280_temperature;BME280_humidity;BME280_pressure;Samples;Min_cycle;Max_cycle;Signal;HPM_P1;HPM_P2
2023/07/04 00:00:55;;;;;;;25.00;13.77;;;;;;;;;;770202;182;920102;-65
2023/07/04 00:03:21;;;;;;;21.70;14.80;;;;;;;;;;759523;182;919773;-65
2023/07/04 00:05:47;;;;;;;26.17;13.33;;;;;;;;;;763358;183;918768;-60
2023/07/04 00:08:13;;;;;;;19.43;13.80;;;;;;;;;;766633;182;918628;-60
2023/07/04 00:10:39;;;;;;;18.93;13.03;;;;;;;;;;763401;181;918135;-64
2023/07/04 00:13:06;;;;;;;21.77;13.50;;;;;;;;;;763426;181;921284;-60
2023/07/04 00:15:31;;;;;;;21.03;13.80;;;;;;;;;;762922;183;921503;-63
2023/07/04 00:17:56;;;;;;;26.50;13.40;;;;;;;;;;769313;182;918915;-60
2023/07/04 00:20:22;;;;;;;19.40;13.00;;;;;;;;;;759711;184;918781;-60
2023/07/04 00:22:48;;;;;;;20.40;13.00;;;;;;;;;;761443;181;816651;-60
2023/07/04 00:25:14;;;;;;;21.80;12.90;;;;;;;;;;762219;184;918905;-60
2023/07/04 00:27:40;;;;;;;20.63;13.77;;;;;;;;;;758999;182;915703;-60
2023/07/04 00:30:08;;;;;;;21.50;12.23;;;;;;;;;;761529;181;918394;-64
2023/07/04 00:32:32;;;;;;;24.33;13.67;;;;;;;;;;765880;182;923468;-60
2023/07/04 00:34:59;;;;;;;20.27;11.90;;;;;;;;;;763454;182;918761;-59
2023/07/04 00:37:24;;;;;;;22.13;14.50;;;;;;;;;;762683;182;919192;-60
2023/07/04 00:39:50;;;;;;;23.97;13.33;;;;;;;;;;759878;182;919231;-62
2023/07/04 00:42:16;;;;;;;24.03;12.90;;;;;;;;;;759113;182;918086;-59
2023/07/04 00:44:47;;;;;;;21.63;13.60;;;;;;;;;;750484;185;915650;-60
2023/07/04 00:47:10;;;;;;;22.73;14.93;;;;;;;;;;753376;182;919777;-63
2023/07/04 00:49:41;;;;;;;27.90;14.53;;;;;;;;;;764535;182;915769;-59
2023/07/04 00:52:04;;;;;;;19.97;14.27;;;;;;;;;;754478;182;919932;-60
2023/07/04 00:54:31;;;;;;;20.73;13.97;;;;;;;;;;763628;182;921067;-60
2023/07/04 00:56:57;;;;;;;29.80;13.40;;;;;;;;;;762050;184;918792;-65
2023/07/04 00:59:23;;;;;;;26.90;13.87;;;;;;;;;;749710;187;918336;-65
2023/07/04 01:01:49;;;;;;;27.70;14.37;;;;;;;;;;748320;183;938279;-61
2023/07/04 01:04:15;;;;;;;21.17;13.37;;;;;;;;;;759526;182;919359;-61
2023/07/04 01:06:42;;;;;;;25.20;14.20;;;;;;;;;;766330;182;816118;-61
2023/07/04 01:09:08;;;;;;;28.30;13.40;;;;;;;;;;766516;182;819294;-65
2023/07/04 01:11:33;;;;;;;27.87;13.27;;;;;;;;;;761855;181;918999;-64
2023/07/04 01:13:59;;;;;;;21.70;14.70;;;;;;;;;;764453;182;919248;-66
2023/07/04 01:16:25;;;;;;;23.53;14.30;;;;;;;;;;763931;182;918627;-61
2023/07/04 01:18:51;;;;;;;25.40;14.37;;;;;;;;;;762036;182;918795;-65
2023/07/04 01:21:17;;;;;;;19.27;11.97;;;;;;;;;;770148;183;816619;-61
2023/07/04 01:23:44;;;;;;;17.63;13.00;;;;;;;;;;759628;184;914292;-61
2023/07/04 01:26:25;;;;;;;25.73;14.37;;;;;;;;;;763769;182;918117;-61
2023/07/04 01:28:53;;;;;;;20.43;12.63;;;;;;;;;;766115;181;915731;-61
2023/07/04 01:31:20;;;;;;;20.80;13.60;;;;;;;;;;759037;182;915621;-61
2023/07/04 01:33:44;;;;;;;23.67;13.80;;;;;;;;;;768588;182;921437;-65
2023/07/04 01:36:09;;;;;;;20.17;13.23;;;;;;;;;;761037;183;918317;-61
2023/07/04 01:38:35;;;;;;;24.80;15.60;;;;;;;;;;763275;182;919315;-65
2023/07/04 01:41:01;;;;;;;20.77;13.70;;;;;;;;;;770691;182;920049;-60
2023/07/04 01:43:27;;;;;;;24.50;13.13;;;;;;;;;;756092;182;919276;-65
2023/07/04 01:45:53;;;;;;;23.63;14.33;;;;;;;;;;766314;182;917215;-65
2023/07/04 01:48:19;;;;;;;32.60;16.43;;;;;;;;;;765919;182;920553;-60
2023/07/04 01:50:44;;;;;;;20.90;13.27;;;;;;;;;;757805;182;918464;-63
2023/07/04 01:53:10;;;;;;;18.33;13.20;;;;;;;;;;762220;182;818521;-64
2023/07/04 01:55:36;;;;;;;25.33;14.40;;;;;;;;;;767053;181;919626;-64
2023/07/04 01:58:02;;;;;;;31.10;15.17;;;;;;;;;;765867;182;816400;-64
2023/07/04 02:00:28;;;;;;;22.87;13.07;;;;;;;;;;764335;182;918898;-61
2023/07/04 02:02:54;;;;;;;21.30;12.80;;;;;;;;;;761692;182;917812;-64
2023/07/04 02:05:19;;;;;;;21.83;13.53;;;;;;;;;;767920;182;918658;-65
2023/07/04 02:07:45;;;;;;;20.23;13.27;;;;;;;;;;765168;182;812133;-65
2023/07/04 02:10:11;;;;;;;25.17;13.13;;;;;;;;;;762562;184;856731;-61
2023/07/04 02:12:37;;;;;;;22.93;14.23;;;;;;;;;;770300;180;882477;-61
2023/07/04 02:15:03;;;;;;;21.63;13.60;;;;;;;;;;755301;182;916134;-61
2023/07/04 02:17:29;;;;;;;22.33;13.23;;;;;;;;;;758932;181;922810;-65
2023/07/04 02:19:55;;;;;;;26.33;13.40;;;;;;;;;;768930;181;821652;-62
2023/07/04 02:22:21;;;;;;;27.53;14.70;;;;;;;;;;771671;181;769556;-61
2023/07/04 02:24:47;;;;;;;24.27;14.57;;;;;;;;;;764255;181;915177;-61
2023/07/04 02:27:12;;;;;;;22.57;15.93;;;;;;;;;;759266;182;915610;-64
2023/07/04 02:29:38;;;;;;;26.03;12.40;;;;;;;;;;762455;183;911575;-64
2023/07/04 02:32:04;;;;;;;26.50;14.48;;;;;;;;;;764293;182;920238;-64
2023/07/04 02:34:30;;;;;;;17.97;13.00;;;;;;;;;;765924;181;924336;-61
2023/07/04 02:36:56;;;;;;;27.60;14.97;;;;;;;;;;762100;184;814906;-62
2023/07/04 02:39:26;;;;;;;27.93;15.07;;;;;;;;;;764546;182;918996;-61
2023/07/04 02:41:48;;;;;;;25.43;15.27;;;;;;;;;;760067;182;918909;-65
2023/07/04 02:44:14;;;;;;;23.43;14.13;;;;;;;;;;760413;182;918947;-64
2023/07/04 02:46:40;;;;;;;21.80;14.90;;;;;;;;;;760918;182;915813;-62
2023/07/04 02:49:06;;;;;;;29.30;14.40;;;;;;;;;;759208;182;912904;-62
2023/07/04 02:51:32;;;;;;;26.67;13.93;;;;;;;;;;761096;182;920463;-62
2023/07/04 02:53:57;;;;;;;23.80;14.83;;;;;;;;;;767456;182;918620;-61
2023/07/04 02:56:23;;;;;;;21.10;13.90;;;;;;;;;;764027;182;917400;-61
2023/07/04 02:58:49;;;;;;;22.70;14.80;;;;;;;;;;762931;182;918377;-62
2023/07/04 03:01:15;;;;;;;33.03;13.87;;;;;;;;;;763915;182;919552;-62
2023/07/04 03:03:41;;;;;;;32.20;14.53;;;;;;;;;;762864;181;919383;-62
2023/07/04 03:06:07;;;;;;;20.23;12.90;;;;;;;;;;763247;182;919628;-64
2023/07/04 03:08:32;;;;;;;18.30;12.50;;;;;;;;;;769443;182;838263;-62
2023/07/04 03:10:58;;;;;;;25.53;15.57;;;;;;;;;;765157;182;913809;-63
2023/07/04 03:13:24;;;;;;;24.20;14.30;;;;;;;;;;761694;182;916695;-63
2023/07/04 03:15:50;;;;;;;22.40;13.43;;;;;;;;;;764395;182;919362;-63
2023/07/04 03:18:16;;;;;;;26.00;12.97;;;;;;;;;;769174;181;816156;-64
2023/07/04 03:20:42;;;;;;;32.73;14.30;;;;;;;;;;767832;181;919124;-63
2023/07/04 03:23:08;;;;;;;20.10;12.83;;;;;;;;;;763239;182;896566;-65
2023/07/04 03:25:33;;;;;;;26.47;14.73;;;;;;;;;;771002;182;818209;-63
2023/07/04 03:27:59;;;;;;;29.07;13.70;;;;;;;;;;764561;180;919443;-65
2023/07/04 03:30:25;;;;;;;29.90;14.90;;;;;;;;;;763549;182;916541;-65
2023/07/04 03:32:51;;;;;;;26.80;14.40;;;;;;;;;;772585;181;851350;-64
2023/07/04 03:35:17;;;;;;;22.10;15.37;;;;;;;;;;756664;182;918961;-62
2023/07/04 03:37:43;;;;;;;18.60;13.23;;;;;;;;;;759666;182;921050;-63
2023/07/04 03:40:09;;;;;;;29.20;14.37;;;;;;;;;;761604;182;919010;-62
2023/07/04 03:42:34;;;;;;;24.57;13.30;;;;;;;;;;771692;181;919038;-63
2023/07/04 03:45:00;;;;;;;24.03;13.80;;;;;;;;;;763836;182;918741;-64
2023/07/04 03:47:26;;;;;;;25.00;13.73;;;;;;;;;;761884;182;918760;-64
2023/07/04 03:49:52;;;;;;;29.30;15.70;;;;;;;;;;767630;182;815897;-63
2023/07/04 03:52:18;;;;;;;19.00;13.43;;;;;;;;;;762794;182;918549;-63
2023/07/04 03:54:44;;;;;;;24.70;14.00;;;;;;;;;;764782;181;918830;-64
2023/07/04 03:57:10;;;;;;;19.07;13.53;;;;;;;;;;759788;182;919038;-64
2023/07/04 03:59:35;;;;;;;27.10;14.37;;;;;;;;;;763284;182;890917;-63
2023/07/04 04:02:01;;;;;;;25.63;12.87;;;;;;;;;;761157;181;918313;-65
2023/07/04 04:04:28;;;;;;;25.17;13.98;;;;;;;;;;768949;181;918705;-64
2023/07/04 04:06:56;;;;;;;31.30;14.27;;;;;;;;;;767336;181;816184;-65
2023/07/04 04:09:20;;;;;;;26.20;14.13;;;;;;;;;;763897;181;848768;-64
2023/07/04 04:11:45;;;;;;;22.20;13.38;;;;;;;;;;764527;182;922676;-64
2023/07/04 04:14:11;;;;;;;25.23;15.20;;;;;;;;;;771103;182;913742;-64
2023/07/04 04:16:37;;;;;;;19.97;13.77;;;;;;;;;;767766;182;870924;-63
2023/07/04 04:19:03;;;;;;;35.23;14.47;;;;;;;;;;766302;182;915340;-63
2023/07/04 04:21:29;;;;;;;22.10;13.40;;;;;;;;;;768563;182;820013;-63
2023/07/04 04:23:55;;;;;;;21.53;13.87;;;;;;;;;;768024;181;626276;-63
2023/07/04 04:26:21;;;;;;;19.93;12.83;;;;;;;;;;767851;181;912821;-64
2023/07/04 04:28:46;;;;;;;22.57;13.37;;;;;;;;;;751007;184;914744;-63
2023/07/04 04:31:12;;;;;;;21.47;12.17;;;;;;;;;;761635;183;919450;-64
2023/07/04 04:33:38;;;;;;;21.30;13.80;;;;;;;;;;756574;182;920489;-63
2023/07/04 04:36:04;;;;;;;28.90;14.50;;;;;;;;;;758861;180;818864;-64
2023/07/04 04:38:30;;;;;;;18.80;12.67;;;;;;;;;;770653;182;822592;-63
2023/07/04 04:40:58;;;;;;;23.30;13.70;;;;;;;;;;759409;182;918535;-64
2023/07/04 04:43:21;;;;;;;20.40;12.80;;;;;;;;;;751629;186;918367;-63
2023/07/04 04:45:47;;;;;;;20.57;12.13;;;;;;;;;;767009;182;818906;-62
2023/07/04 04:48:18;;;;;;;30.33;15.30;;;;;;;;;;758593;182;920484;-65
2023/07/04 04:50:43;;;;;;;21.43;14.20;;;;;;;;;;762310;182;919246;-64
2023/07/04 04:53:05;;;;;;;19.77;13.33;;;;;;;;;;768161;182;814809;-62
2023/07/04 04:55:31;;;;;;;20.70;13.40;;;;;;;;;;760010;182;921781;-65
2023/07/04 04:57:57;;;;;;;19.10;12.73;;;;;;;;;;759689;182;917276;-62
2023/07/04 05:00:22;;;;;;;21.10;12.90;;;;;;;;;;763233;182;917351;-62
2023/07/04 05:02:48;;;;;;;21.93;12.90;;;;;;;;;;766699;182;907986;-62
2023/07/04 05:05:14;;;;;;;22.40;12.47;;;;;;;;;;760571;182;911484;-65
2023/07/04 05:07:40;;;;;;;23.75;13.70;;;;;;;;;;755924;184;935679;-65
2023/07/04 05:10:06;;;;;;;21.53;13.03;;;;;;;;;;769550;182;868676;-61
2023/07/04 05:12:34;;;;;;;22.37;13.50;;;;;;;;;;764383;182;920507;-62
2023/07/04 05:14:58;;;;;;;18.62;11.82;;;;;;;;;;759032;182;929449;-64
2023/07/04 05:17:24;;;;;;;25.40;12.93;;;;;;;;;;768154;182;917657;-65
2023/07/04 05:19:50;;;;;;;19.33;13.17;;;;;;;;;;762934;182;920711;-61
2023/07/04 05:22:15;;;;;;;18.83;13.73;;;;;;;;;;754496;182;928120;-66
2023/07/04 05:24:42;;;;;;;17.73;11.98;;;;;;;;;;760298;182;914139;-61
2023/07/04 05:27:08;;;;;;;20.57;11.80;;;;;;;;;;769274;181;913260;-61
2023/07/04 05:29:34;;;;;;;24.37;13.23;;;;;;;;;;763098;182;921075;-66
2023/07/04 05:31:59;;;;;;;19.73;10.67;;;;;;;;;;757270;182;898267;-66
2023/07/04 05:34:25;;;;;;;18.77;9.60;;;;;;;;;;755248;183;917077;-61
2023/07/04 05:36:51;;;;;;;18.97;10.13;;;;;;;;;;758526;181;914415;-66
2023/07/04 05:39:17;;;;;;;16.33;9.60;;;;;;;;;;765206;182;871149;-66
2023/07/04 05:41:43;;;;;;;23.60;11.77;;;;;;;;;;770999;182;714833;-62
2023/07/04 05:44:09;;;;;;;17.27;8.90;;;;;;;;;;758104;182;918616;-65
2023/07/04 05:46:35;;;;;;;15.80;8.63;;;;;;;;;;764556;182;927194;-60
2023/07/04 05:49:00;;;;;;;20.63;9.53;;;;;;;;;;766212;181;918997;-62
2023/07/04 05:51:26;;;;;;;17.63;7.73;;;;;;;;;;765817;182;920694;-61
2023/07/04 05:53:52;;;;;;;16.40;8.07;;;;;;;;;;767376;180;916878;-61
2023/07/04 05:56:19;;;;;;;15.03;8.03;;;;;;;;;;762091;182;918907;-65
2023/07/04 05:58:45;;;;;;;15.70;7.90;;;;;;;;;;768709;182;918197;-65
2023/07/04 06:01:10;;;;;;;16.07;6.90;;;;;;;;;;761921;182;919684;-63
2023/07/04 06:03:36;;;;;;;16.47;8.37;;;;;;;;;;763138;182;919181;-61
2023/07/04 06:06:02;;;;;;;11.57;7.17;;;;;;;;;;769501;182;918942;-65
2023/07/04 06:08:28;;;;;;;14.80;7.60;;;;;;;;;;759091;182;919175;-65
2023/07/04 06:11:01;;;;;;;15.23;7.07;;;;;;;;;;762312;182;918226;-67
2023/07/04 06:13:27;;;;;;;10.63;7.20;;;;;;;;;;762906;182;919917;-63
2023/07/04 06:15:53;;;;;;;11.40;8.03;;;;;;;;;;769647;182;818102;-60
2023/07/04 06:18:19;;;;;;;16.08;8.13;;;;;;;;;;762235;182;919409;-66
2023/07/04 06:20:45;;;;;;;10.00;6.57;;;;;;;;;;761737;182;918664;-66
2023/07/04 06:23:11;;;;;;;11.70;7.03;;;;;;;;;;769059;183;816715;-67
2023/07/04 06:25:37;;;;;;;13.10;6.57;;;;;;;;;;764818;179;816205;-66
2023/07/04 06:28:02;;;;;;;18.63;7.00;;;;;;;;;;756242;184;623896;-61
2023/07/04 06:30:32;;;;;;;13.03;6.67;;;;;;;;;;766345;182;918805;-61
2023/07/04 06:32:54;;;;;;;10.77;6.00;;;;;;;;;;763606;182;921087;-61
2023/07/04 06:35:20;;;;;;;11.83;5.87;;;;;;;;;;753705;182;924715;-67
2023/07/04 06:37:46;;;;;;;11.53;6.53;;;;;;;;;;763448;181;919238;-66
2023/07/04 06:40:12;;;;;;;11.13;5.67;;;;;;;;;;772851;182;919080;-61
2023/07/04 06:42:38;;;;;;;9.77;5.03;;;;;;;;;;768347;182;919176;-66
2023/07/04 06:45:04;;;;;;;12.27;6.30;;;;;;;;;;769573;182;624346;-67
2023/07/04 06:47:30;;;;;;;11.73;6.13;;;;;;;;;;770987;182;820601;-66
2023/07/04 06:49:55;;;;;;;10.20;5.10;;;;;;;;;;765428;181;935995;-66
2023/07/04 06:52:21;;;;;;;13.67;6.53;;;;;;;;;;766050;182;632504;-65
2023/07/04 06:54:49;;;;;;;11.50;5.80;;;;;;;;;;768605;182;609615;-60
2023/07/04 06:57:15;;;;;;;16.90;6.17;;;;;;;;;;759401;182;628197;-62
2023/07/04 06:59:44;;;;;;;11.73;6.10;;;;;;;;;;767667;180;917489;-61
2023/07/04 07:02:07;;;;;;;12.10;6.60;;;;;;;;;;764677;180;818189;-60
2023/07/04 07:04:32;;;;;;;8.63;5.50;;;;;;;;;;768327;181;891551;-66
2023/07/04 07:06:58;;;;;;;10.63;6.20;;;;;;;;;;767771;180;918308;-66
2023/07/04 07:09:25;;;;;;;11.32;4.82;;;;;;;;;;764186;180;932385;-62
2023/07/04 07:11:50;;;;;;;7.87;4.70;;;;;;;;;;761695;182;817983;-61
2023/07/04 07:14:16;;;;;;;9.30;5.90;;;;;;;;;;760352;182;917989;-62
2023/07/04 07:16:41;;;;;;;5.60;3.73;;;;;;;;;;761263;182;917704;-65
2023/07/04 07:19:07;;;;;;;8.17;4.17;;;;;;;;;;769298;181;918464;-66
2023/07/04 07:21:33;;;;;;;7.50;5.30;;;;;;;;;;758667;181;919322;-62
2023/07/04 07:23:59;;;;;;;10.47;5.17;;;;;;;;;;763309;181;917672;-66
2023/07/04 07:26:25;;;;;;;7.67;4.60;;;;;;;;;;764761;181;919104;-62
2023/07/04 07:28:51;;;;;;;6.20;4.03;;;;;;;;;;769916;182;921406;-64
2023/07/04 07:31:18;;;;;;;7.43;5.43;;;;;;;;;;761348;182;915157;-63
2023/07/04 07:33:45;;;;;;;7.87;5.80;;;;;;;;;;764912;181;918889;-65
2023/07/04 07:36:13;;;;;;;7.47;4.30;;;;;;;;;;770229;181;917683;-62
2023/07/04 07:38:38;;;;;;;10.43;5.17;;;;;;;;;;763080;182;916451;-62
2023/07/04 07:41:05;;;;;;;9.93;4.60;;;;;;;;;;760722;182;921008;-62
2023/07/04 07:43:30;;;;;;;7.63;4.30;;;;;;;;;;769803;182;918932;-61
2023/07/04 07:45:56;;;;;;;11.03;4.73;;;;;;;;;;759897;182;919281;-66
2023/07/04 07:48:22;;;;;;;5.90;3.90;;;;;;;;;;762825;182;817861;-62
2023/07/04 07:50:48;;;;;;;8.20;4.77;;;;;;;;;;753400;186;915620;-66
2023/07/04 07:53:14;;;;;;;9.60;4.10;;;;;;;;;;767786;182;914859;-63
2023/07/04 07:55:39;;;;;;;6.10;3.30;;;;;;;;;;760049;182;915031;-64
2023/07/04 07:58:05;;;;;;;7.60;3.20;;;;;;;;;;760542;182;919702;-63
2023/07/04 08:00:31;;;;;;;8.67;3.53;;;;;;;;;;756318;186;917985;-65
2023/07/04 08:02:57;;;;;;;4.27;2.50;;;;;;;;;;760332;182;816691;-64
2023/07/04 08:05:23;;;;;;;7.30;2.20;;;;;;;;;;765614;182;919178;-64
2023/07/04 08:07:49;;;;;;;7.67;3.47;;;;;;;;;;767455;182;874903;-65
2023/07/04 08:10:14;;;;;;;4.23;2.30;;;;;;;;;;763883;182;892437;-63
2023/07/04 08:12:40;;;;;;;4.90;2.67;;;;;;;;;;765934;182;920954;-61
2023/07/04 08:15:07;;;;;;;13.17;2.93;;;;;;;;;;766636;182;918616;-63
2023/07/04 08:17:32;;;;;;;5.20;2.80;;;;;;;;;;762691;183;805548;-65
2023/07/04 08:19:58;;;;;;;8.47;2.40;;;;;;;;;;765545;182;915316;-62
2023/07/04 08:22:24;;;;;;;5.20;2.40;;;;;;;;;;761835;182;900605;-64
2023/07/04 08:24:50;;;;;;;6.32;2.95;;;;;;;;;;765173;181;921066;-64
2023/07/04 08:27:16;;;;;;;6.20;2.90;;;;;;;;;;760288;181;915851;-63
2023/07/04 08:29:42;;;;;;;5.40;3.10;;;;;;;;;;760158;182;906981;-63
2023/07/04 08:32:10;;;;;;;6.30;3.63;;;;;;;;;;756720;182;819267;-64
2023/07/04 08:34:33;;;;;;;7.70;3.23;;;;;;;;;;752829;182;979695;-64
2023/07/04 08:36:59;;;;;;;5.00;2.97;;;;;;;;;;761385;182;881982;-62
2023/07/04 08:39:25;;;;;;;4.80;3.03;;;;;;;;;;770305;181;908104;-63
2023/07/04 08:41:56;;;;;;;4.17;2.50;;;;;;;;;;764591;180;919679;-62
2023/07/04 08:44:17;;;;;;;5.30;3.10;;;;;;;;;;758604;183;818370;-62
2023/07/04 08:46:43;;;;;;;7.40;2.70;;;;;;;;;;764047;182;922534;-64
2023/07/04 08:49:10;;;;;;;6.23;3.10;;;;;;;;;;764587;182;868355;-61
2023/07/04 08:51:36;;;;;;;4.77;3.00;;;;;;;;;;753453;182;858308;-63
2023/07/04 08:54:02;;;;;;;5.70;3.13;;;;;;;;;;755219;184;918158;-66
2023/07/04 08:56:31;;;;;;;5.70;2.90;;;;;;;;;;770592;182;813824;-66
2023/07/04 08:59:11;;;;;;;6.93;3.60;;;;;;;;;;757168;180;898916;-62
2023/07/04 09:01:37;;;;;;;4.67;2.50;;;;;;;;;;760435;181;918722;-63
2023/07/04 09:04:05;;;;;;;5.00;2.87;;;;;;;;;;759249;182;918315;-64
2023/07/04 09:06:31;;;;;;;10.27;4.00;;;;;;;;;;762775;183;916914;-66
2023/07/04 09:08:58;;;;;;;5.70;3.00;;;;;;;;;;762357;182;901569;-66
2023/07/04 09:11:24;;;;;;;5.20;3.00;;;;;;;;;;765186;182;917898;-67
2023/07/04 09:13:50;;;;;;;5.50;3.00;;;;;;;;;;763651;182;918985;-68
2023/07/04 09:16:17;;;;;;;5.85;2.92;;;;;;;;;;764034;182;923961;-66
2023/07/04 09:18:47;;;;;;;8.00;3.10;;;;;;;;;;753048;183;923735;-67
2023/07/04 09:21:12;;;;;;;6.82;3.03;;;;;;;;;;760796;182;898647;-65
2023/07/04 09:23:38;;;;;;;6.10;3.60;;;;;;;;;;763321;182;913800;-64
2023/07/04 09:26:03;;;;;;;6.30;3.23;;;;;;;;;;761579;182;916528;-64
2023/07/04 09:28:29;;;;;;;6.03;3.00;;;;;;;;;;755702;181;813549;-63
2023/07/04 09:30:56;;;;;;;12.37;3.77;;;;;;;;;;764233;182;910180;-64
2023/07/04 09:33:23;;;;;;;4.73;3.20;;;;;;;;;;764894;182;922750;-66
2023/07/04 09:35:48;;;;;;;5.77;3.23;;;;;;;;;;763970;181;921018;-65
2023/07/04 09:38:13;;;;;;;7.53;3.90;;;;;;;;;;761982;181;916793;-65
2023/07/04 09:40:42;;;;;;;5.23;3.23;;;;;;;;;;767997;181;915857;-64
2023/07/04 09:43:08;;;;;;;7.07;3.13;;;;;;;;;;758708;183;919206;-64
2023/07/04 09:45:34;;;;;;;9.63;3.50;;;;;;;;;;760450;182;948974;-64
2023/07/04 09:48:00;;;;;;;4.03;3.13;;;;;;;;;;756455;183;912118;-66
2023/07/04 09:50:27;;;;;;;7.73;3.03;;;;;;;;;;752234;184;927431;-64
2023/07/04 09:53:00;;;;;;;5.63;3.10;;;;;;;;;;757494;182;920313;-65
2023/07/04 09:55:25;;;;;;;5.70;3.00;;;;;;;;;;761281;183;920807;-65
2023/07/04 09:57:51;;;;;;;5.10;2.70;;;;;;;;;;769595;181;915031;-63
2023/07/04 10:00:19;;;;;;;5.40;2.90;;;;;;;;;;765315;182;921333;-64
2023/07/04 10:02:46;;;;;;;8.90;3.50;;;;;;;;;;759741;182;811436;-65
2023/07/04 10:05:12;;;;;;;6.50;3.67;;;;;;;;;;760734;182;919612;-61
2023/07/04 10:07:37;;;;;;;6.50;3.20;;;;;;;;;;762391;182;620148;-64
2023/07/04 10:10:04;;;;;;;6.90;3.20;;;;;;;;;;764827;182;914837;-61
2023/07/04 10:12:29;;;;;;;7.20;2.93;;;;;;;;;;762367;182;923862;-65
2023/07/04 10:14:55;;;;;;;5.27;3.20;;;;;;;;;;763739;182;915962;-64
2023/07/04 10:17:21;;;;;;;4.53;2.90;;;;;;;;;;761524;182;921024;-64
2023/07/04 10:19:47;;;;;;;4.87;3.20;;;;;;;;;;760957;182;910162;-65
2023/07/04 10:22:13;;;;;;;4.63;2.83;;;;;;;;;;767270;183;919421;-66
2023/07/04 10:24:38;;;;;;;5.30;3.03;;;;;;;;;;752531;183;918978;-65
2023/07/04 10:27:05;;;;;;;5.50;3.00;;;;;;;;;;759826;182;918096;-65
2023/07/04 10:29:31;;;;;;;5.60;2.87;;;;;;;;;;764203;182;919378;-65
2023/07/04 10:31:56;;;;;;;4.13;2.40;;;;;;;;;;765377;182;736811;-65
2023/07/04 10:34:22;;;;;;;4.13;2.80;;;;;;;;;;755680;182;915661;-64
2023/07/04 10:36:49;;;;;;;6.70;3.20;;;;;;;;;;757518;182;817008;-64
2023/07/04 10:39:14;;;;;;;8.80;3.27;;;;;;;;;;767566;182;792930;-65
2023/07/04 10:41:40;;;;;;;4.57;2.60;;;;;;;;;;767772;181;913076;-63
2023/07/04 10:44:06;;;;;;;6.73;3.10;;;;;;;;;;755561;183;912067;-64
2023/07/04 10:46:32;;;;;;;5.93;3.20;;;;;;;;;;762132;183;794893;-66
2023/07/04 10:48:58;;;;;;;5.03;3.33;;;;;;;;;;757306;182;921509;-63
2023/07/04 10:51:27;;;;;;;5.40;2.80;;;;;;;;;;763054;182;891850;-64
2023/07/04 10:53:52;;;;;;;10.10;3.30;;;;;;;;;;762213;182;912233;-63
2023/07/04 10:56:18;;;;;;;8.47;4.20;;;;;;;;;;761481;183;857305;-63
2023/07/04 10:58:44;;;;;;;4.90;3.17;;;;;;;;;;761215;180;851248;-63
2023/07/04 11:01:10;;;;;;;6.60;3.40;;;;;;;;;;763758;182;912817;-64
2023/07/04 11:03:46;;;;;;;6.93;3.28;;;;;;;;;;765487;182;812113;-65
2023/07/04 11:06:12;;;;;;;5.20;3.37;;;;;;;;;;763564;183;915590;-67
2023/07/04 11:08:39;;;;;;;6.17;3.17;;;;;;;;;;760797;182;915516;-67
2023/07/04 11:11:05;;;;;;;6.40;3.33;;;;;;;;;;762884;182;919260;-65
2023/07/04 11:13:31;;;;;;;4.77;3.40;;;;;;;;;;770944;182;896548;-65
2023/07/04 11:15:57;;;;;;;10.17;3.40;;;;;;;;;;753609;184;918086;-64
2023/07/04 11:18:26;;;;;;;6.03;3.47;;;;;;;;;;767984;182;917973;-66
2023/07/04 11:20:51;;;;;;;5.57;3.77;;;;;;;;;;768358;182;914766;-66
2023/07/04 11:23:16;;;;;;;8.57;3.60;;;;;;;;;;764634;182;820863;-67
2023/07/04 11:25:58;;;;;;;4.60;2.60;;;;;;;;;;754747;182;930692;-66
2023/07/04 11:28:25;;;;;;;6.00;3.30;;;;;;;;;;766034;181;915613;-66
2023/07/04 11:30:51;;;;;;;10.00;3.73;;;;;;;;;;757762;182;717505;-65
2023/07/04 11:33:23;;;;;;;9.13;3.70;;;;;;;;;;765092;182;814462;-64
2023/07/04 11:35:49;;;;;;;5.63;3.53;;;;;;;;;;763592;182;940997;-66
2023/07/04 11:38:15;;;;;;;6.40;3.73;;;;;;;;;;758249;183;816699;-66
2023/07/04 11:40:41;;;;;;;5.50;3.20;;;;;;;;;;767810;182;819358;-66
2023/07/04 11:43:07;;;;;;;8.70;3.00;;;;;;;;;;758841;183;918098;-66
2023/07/04 11:45:33;;;;;;;6.73;3.50;;;;;;;;;;759820;181;816288;-67
2023/07/04 11:47:59;;;;;;;7.80;4.00;;;;;;;;;;766664;182;792284;-65
2023/07/04 11:50:37;;;;;;;6.30;3.43;;;;;;;;;;766211;182;803271;-65
2023/07/04 11:53:03;;;;;;;5.83;3.47;;;;;;;;;;748130;183;921014;-65
2023/07/04 11:55:29;;;;;;;7.33;3.50;;;;;;;;;;765577;182;900412;-65
2023/07/04 11:57:56;;;;;;;9.50;3.90;;;;;;;;;;762918;181;915290;-65
2023/07/04 12:00:22;;;;;;;5.10;3.20;;;;;;;;;;767531;182;915582;-66
2023/07/04 12:02:47;;;;;;;5.40;3.97;;;;;;;;;;757589;183;911072;-67
2023/07/04 12:05:19;;;;;;;5.60;3.50;;;;;;;;;;754297;183;916396;-66
2023/07/04 12:07:45;;;;;;;5.63;3.83;;;;;;;;;;763372;182;915540;-65
2023/07/04 12:10:12;;;;;;;6.60;3.27;;;;;;;;;;758302;182;915952;-68
2023/07/04 12:12:37;;;;;;;6.43;2.90;;;;;;;;;;762741;182;915894;-66
2023/07/04 12:15:08;;;;;;;9.53;3.37;;;;;;;;;;763259;181;919224;-64
2023/07/04 12:17:33;;;;;;;5.90;3.17;;;;;;;;;;768421;182;919058;-66
2023/07/04 12:19:59;;;;;;;8.87;3.20;;;;;;;;;;756223;182;918438;-66
2023/07/04 12:22:25;;;;;;;4.33;2.73;;;;;;;;;;766971;182;941459;-67
2023/07/04 12:24:50;;;;;;;5.17;3.20;;;;;;;;;;767833;182;866281;-67
2023/07/04 12:27:17;;;;;;;4.70;2.60;;;;;;;;;;760613;182;918630;-67
2023/07/04 12:29:42;;;;;;;7.30;3.30;;;;;;;;;;757043;183;919378;-68
2023/07/04 12:32:08;;;;;;;5.67;2.70;;;;;;;;;;761095;182;918676;-65
2023/07/04 12:34:34;;;;;;;7.07;3.20;;;;;;;;;;768770;181;918468;-65
2023/07/04 12:37:05;;;;;;;6.77;3.50;;;;;;;;;;761574;182;945492;-65
2023/07/04 12:39:27;;;;;;;4.20;2.63;;;;;;;;;;758300;182;925285;-65
2023/07/04 12:41:52;;;;;;;5.77;3.30;;;;;;;;;;760783;182;920252;-65
2023/07/04 12:44:18;;;;;;;5.37;3.47;;;;;;;;;;763698;182;916575;-64
2023/07/04 12:46:44;;;;;;;7.67;2.93;;;;;;;;;;757377;180;819474;-63
2023/07/04 12:49:10;;;;;;;7.40;3.87;;;;;;;;;;766935;180;912553;-65
2023/07/04 12:51:36;;;;;;;5.63;3.50;;;;;;;;;;752408;182;919010;-64
2023/07/04 12:54:02;;;;;;;7.07;4.37;;;;;;;;;;753600;182;816330;-62
2023/07/04 12:56:28;;;;;;;5.53;3.60;;;;;;;;;;764646;181;914511;-64
2023/07/04 12:58:53;;;;;;;5.80;3.37;;;;;;;;;;758808;182;919000;-65
2023/07/04 13:01:24;;;;;;;8.73;3.33;;;;;;;;;;749751;184;818096;-66
2023/07/04 13:03:59;;;;;;;7.67;3.27;;;;;;;;;;749696;185;919109;-65
2023/07/04 13:06:25;;;;;;;8.33;3.73;;;;;;;;;;750669;184;890850;-65
2023/07/04 13:08:51;;;;;;;6.60;3.80;;;;;;;;;;748081;186;919049;-62
2023/07/04 13:11:16;;;;;;;5.63;3.40;;;;;;;;;;758840;183;919240;-62
2023/07/04 13:13:43;;;;;;;6.60;3.80;;;;;;;;;;760307;182;918944;-63
2023/07/04 13:16:11;;;;;;;6.87;3.50;;;;;;;;;;756334;184;918923;-61
2023/07/04 13:18:39;;;;;;;5.10;3.50;;;;;;;;;;766399;181;919822;-62
2023/07/04 13:21:03;;;;;;;6.17;3.80;;;;;;;;;;760500;183;919286;-63
2023/07/04 13:23:29;;;;;;;6.43;4.00;;;;;;;;;;766980;181;915417;-64
2023/07/04 13:25:55;;;;;;;6.00;3.23;;;;;;;;;;746844;185;918791;-65
2023/07/04 13:28:23;;;;;;;7.60;3.77;;;;;;;;;;755960;183;931507;-64
2023/07/04 13:30:48;;;;;;;7.10;3.90;;;;;;;;;;757692;183;820333;-63
2023/07/04 13:33:20;;;;;;;6.57;3.63;;;;;;;;;;762471;183;916201;-65
2023/07/04 13:35:46;;;;;;;6.40;3.43;;;;;;;;;;749745;184;915342;-63
2023/07/04 13:38:12;;;;;;;5.63;3.73;;;;;;;;;;747547;184;913360;-64
2023/07/04 13:40:38;;;;;;;8.98;3.95;;;;;;;;;;752539;184;944823;-63
2023/07/04 13:43:06;;;;;;;9.30;4.67;;;;;;;;;;751583;184;899083;-65
2023/07/04 13:45:32;;;;;;;5.30;3.80;;;;;;;;;;757167;182;919861;-65
2023/07/04 13:47:57;;;;;;;7.70;4.23;;;;;;;;;;753131;184;815479;-63
2023/07/04 13:50:24;;;;;;;6.07;3.43;;;;;;;;;;766553;182;918332;-64
2023/07/04 13:52:49;;;;;;;7.50;3.83;;;;;;;;;;762744;182;918953;-63
2023/07/04 13:55:15;;;;;;;8.10;3.70;;;;;;;;;;755123;183;908643;-64
2023/07/04 13:57:41;;;;;;;9.53;4.10;;;;;;;;;;757797;184;918089;-64
2023/07/04 14:00:07;;;;;;;6.97;4.20;;;;;;;;;;763258;182;920001;-66
2023/07/04 14:02:33;;;;;;;8.47;4.13;;;;;;;;;;760954;182;919069;-63
2023/07/04 14:04:59;;;;;;;8.40;3.47;;;;;;;;;;764898;183;920399;-65
2023/07/04 14:07:25;;;;;;;6.47;3.60;;;;;;;;;;768038;182;918657;-63
2023/07/04 14:09:51;;;;;;;9.03;4.30;;;;;;;;;;769157;180;919131;-63
2023/07/04 14:12:16;;;;;;;6.47;4.07;;;;;;;;;;767719;180;916815;-62